Time,TemperatureF,DewpointF,PressureIn,WindDirection,WindDirectionDegrees,WindSpeedMPH,WindSpeedGustMPH,Humidity,HourlyPrecipIn,Conditions,Clouds,dailyrainin,SoftwareType,DateUTC
2013-04-14 00:02:00,57.0,41.0,30.16,North,357,0.0,0.0,55,0.00,,,0.00,,2013-04-14 04:02:00,
2013-04-14 00:12:00,57.0,41.0,30.16,North,357,0.0,0.0,55,0.00,,,0.00,,2013-04-14 04:12:00,
2013-04-14 00:23:00,57.0,42.0,30.16,NNE,27,0.0,0.0,58,0.00,,,0.00,,2013-04-14 04:23:00,
2013-04-14 00:33:00,56.0,41.0,30.16,WSW,239,0.0,0.0,58,0.00,,,0.00,,2013-04-14 04:33:00,
2013-04-14 00:43:00,56.0,41.0,30.16,WSW,239,0.0,0.0,58,0.00,,,0.00,,2013-04-14 04:43:00,
2013-04-14 00:52:00,55.0,43.0,30.18,West,260,0.0,0.0,63,0.00,,,0.00,,2013-04-14 04:52:00,
2013-04-14 01:03:00,54.0,43.0,30.18,WSW,240,0.0,0.0,65,0.00,,,0.00,,2013-04-14 05:03:00,
2013-04-14 01:12:00,54.0,43.0,30.18,WSW,240,0.0,0.0,65,0.00,,,0.00,,2013-04-14 05:12:00,
2013-04-14 01:22:00,53.0,42.0,30.18,West,274,0.0,0.0,67,0.00,,,0.76,,2013-04-14 05:22:00,
2013-04-14 01:32:00,53.0,44.0,30.19,West,281,0.0,1.0,71,0.00,,,0.76,,2013-04-14 05:32:00,
2013-04-14 01:42:00,53.0,44.0,30.19,West,281,0.0,1.0,71,0.00,,,0.76,,2013-04-14 05:42:00,
2013-04-14 01:52:00,52.0,43.0,30.18,West,278,0.0,0.0,72,0.00,,,0.76,,2013-04-14 05:52:00,
2013-04-14 02:02:00,52.0,43.0,30.18,West,278,0.0,0.0,72,0.00,,,0.76,,2013-04-14 06:02:00,
2013-04-14 02:12:00,52.0,43.0,30.18,West,278,0.0,0.0,72,0.00,,,0.76,,2013-04-14 06:12:00,
2013-04-14 02:22:00,51.0,43.0,30.18,West,278,0.0,0.0,75,0.00,,,0.76,,2013-04-14 06:22:00,
2013-04-14 02:32:00,51.0,43.0,30.18,West,278,0.0,0.0,74,0.00,,,0.76,,2013-04-14 06:32:00,
2013-04-14 02:42:00,51.0,43.0,30.18,West,278,0.0,0.0,74,0.00,,,0.76,,2013-04-14 06:42:00,
2013-04-14 02:52:00,50.0,43.0,30.18,West,278,0.0,0.0,77,0.00,,,0.76,,2013-04-14 06:52:00,
2013-04-14 03:02:00,50.0,43.0,30.17,West,278,0.0,0.0,78,0.00,,,0.76,,2013-04-14 07:02:00,
2013-04-14 03:12:00,50.0,43.0,30.17,West,278,0.0,0.0,78,0.00,,,0.76,,2013-04-14 07:12:00,
2013-04-14 03:22:00,49.0,43.0,30.17,West,278,0.0,0.0,80,0.00,,,0.76,,2013-04-14 07:22:00,
2013-04-14 03:32:00,49.0,43.0,30.17,West,278,0.0,0.0,79,0.00,,,0.76,,2013-04-14 07:32:00,
2013-04-14 03:42:00,49.0,43.0,30.17,West,278,0.0,0.0,79,0.00,,,0.76,,2013-04-14 07:42:00,
2013-04-14 03:52:00,49.0,44.0,30.17,West,278,0.0,0.0,82,0.00,,,0.76,,2013-04-14 07:52:00,
2013-04-14 04:02:00,48.0,43.0,30.17,West,278,0.0,0.0,83,0.00,,,0.76,,2013-04-14 08:02:00,
2013-04-14 04:12:00,48.0,43.0,30.17,West,278,0.0,0.0,83,0.00,,,0.76,,2013-04-14 08:12:00,
2013-04-14 04:22:00,48.0,44.0,30.17,West,278,0.0,0.0,85,0.00,,,0.76,,2013-04-14 08:22:00,
2013-04-14 04:32:00,47.0,43.0,30.18,West,278,0.0,0.0,85,0.00,,,0.76,,2013-04-14 08:32:00,
2013-04-14 04:42:00,47.0,43.0,30.18,West,278,0.0,0.0,85,0.00,,,0.76,,2013-04-14 08:42:00,
2013-04-14 04:52:00,47.0,43.0,30.18,West,278,0.0,0.0,87,0.00,,,0.76,,2013-04-14 08:52:00,
2013-04-14 05:03:00,47.0,43.0,30.18,West,278,0.0,0.0,86,0.00,,,0.76,,2013-04-14 09:03:00,
2013-04-14 05:12:00,47.0,43.0,30.18,West,278,0.0,0.0,86,0.00,,,0.76,,2013-04-14 09:12:00,
2013-04-14 05:22:00,47.0,43.0,30.18,West,278,0.0,0.0,87,0.00,,,0.76,,2013-04-14 09:22:00,
2013-04-14 05:33:00,47.0,44.0,30.18,West,278,0.0,0.0,88,0.00,,,0.76,,2013-04-14 09:33:00,
2013-04-14 05:43:00,47.0,44.0,30.18,West,278,0.0,0.0,88,0.00,,,0.76,,2013-04-14 09:43:00,
2013-04-14 05:53:00,47.0,44.0,30.18,West,278,0.0,0.0,88,0.00,,,0.76,,2013-04-14 09:53:00,
2013-04-14 06:03:00,46.0,42.0,30.18,West,278,0.0,0.0,87,0.00,,,0.76,,2013-04-14 10:03:00,
2013-04-14 06:12:00,46.0,42.0,30.18,West,278,0.0,0.0,87,0.00,,,0.76,,2013-04-14 10:12:00,
2013-04-14 06:23:00,46.0,42.0,30.18,West,278,0.0,0.0,87,0.00,,,0.76,,2013-04-14 10:23:00,
2013-04-14 06:33:00,46.0,43.0,30.18,West,278,0.0,0.0,88,0.00,,,0.76,,2013-04-14 10:33:00,
2013-04-14 06:42:00,46.0,43.0,30.18,West,278,0.0,0.0,88,0.00,,,0.76,,2013-04-14 10:42:00,
2013-04-14 06:52:00,46.0,43.0,30.19,West,278,0.0,0.0,90,0.00,,,0.76,,2013-04-14 10:52:00,
2013-04-14 07:02:00,45.0,42.0,30.19,West,278,0.0,0.0,89,0.00,,,0.76,,2013-04-14 11:02:00,
2013-04-14 07:12:00,45.0,42.0,30.19,West,278,0.0,0.0,89,0.00,,,0.76,,2013-04-14 11:12:00,
2013-04-14 07:22:00,45.0,43.0,30.21,West,278,0.0,0.0,92,0.00,,,0.76,,2013-04-14 11:22:00,
2013-04-14 07:32:00,45.0,42.0,30.21,West,278,0.0,0.0,90,0.00,,,0.76,,2013-04-14 11:32:00,
2013-04-14 07:42:00,45.0,42.0,30.21,West,278,0.0,0.0,90,0.00,,,0.76,,2013-04-14 11:42:00,
2013-04-14 07:52:00,45.0,42.0,30.21,West,278,0.0,0.0,90,0.00,,,0.76,,2013-04-14 11:52:00,
2013-04-14 08:02:00,46.0,43.0,30.22,West,278,0.0,0.0,88,0.00,,,0.76,,2013-04-14 12:02:00,
2013-04-14 08:12:00,46.0,43.0,30.22,West,278,0.0,0.0,88,0.00,,,0.76,,2013-04-14 12:12:00,
2013-04-14 08:22:00,47.0,43.0,30.22,West,278,0.0,0.0,87,0.00,,,0.76,,2013-04-14 12:22:00,
2013-04-14 08:32:00,50.0,45.0,30.22,West,278,0.0,0.0,84,0.00,,,0.76,,2013-04-14 12:32:00,
2013-04-14 08:42:00,50.0,45.0,30.22,West,278,0.0,0.0,84,0.00,,,0.76,,2013-04-14 12:42:00,
2013-04-14 08:52:00,52.0,47.0,30.22,West,278,0.0,0.0,84,0.00,,,0.76,,2013-04-14 12:52:00,
2013-04-14 09:02:00,54.0,47.0,30.22,West,278,0.0,0.0,78,0.00,,,0.76,,2013-04-14 13:02:00,
2013-04-14 09:12:00,54.0,47.0,30.22,West,278,0.0,0.0,78,0.00,,,0.76,,2013-04-14 13:12:00,
2013-04-14 09:22:00,57.0,47.0,30.22,West,278,0.0,0.0,70,0.00,,,0.76,,2013-04-14 13:22:00,
2013-04-14 09:33:00,61.0,48.0,30.23,West,278,0.0,0.0,63,0.00,,,0.76,,2013-04-14 13:33:00,
2013-04-14 09:42:00,61.0,48.0,30.23,West,278,0.0,0.0,63,0.00,,,0.76,,2013-04-14 13:42:00,
2013-04-14 09:52:00,64.0,47.0,30.23,ENE,58,0.0,0.0,54,0.00,,,0.76,,2013-04-14 13:52:00,
2013-04-14 10:02:00,66.0,43.0,30.22,SSW,198,4.0,5.0,44,0.00,,,0.76,,2013-04-14 14:02:00,
2013-04-14 10:12:00,68.0,43.0,30.22,ESE,122,2.0,4.0,40,0.00,,,0.76,,2013-04-14 14:12:00,
2013-04-14 10:22:00,68.0,43.0,30.22,ESE,122,2.0,4.0,40,0.00,,,0.76,,2013-04-14 14:22:00,
2013-04-14 10:32:00,68.0,42.0,30.22,ESE,121,3.0,5.0,39,0.00,,,0.76,,2013-04-14 14:32:00,
2013-04-14 10:42:00,68.0,42.0,30.22,ESE,121,3.0,5.0,39,0.00,,,0.76,,2013-04-14 14:42:00,
2013-04-14 10:52:00,68.0,41.0,30.21,ENE,69,0.0,0.0,38,0.00,,,0.76,,2013-04-14 14:52:00,
2013-04-14 11:02:00,69.0,41.0,30.21,SSE,159,3.0,4.0,36,0.00,,,0.76,,2013-04-14 15:02:00,
2013-04-14 11:12:00,69.0,41.0,30.21,SSE,159,3.0,4.0,36,0.00,,,0.76,,2013-04-14 15:12:00,
2013-04-14 11:22:00,71.0,41.0,30.22,SSE,160,3.0,7.0,34,0.00,,,0.76,,2013-04-14 15:22:00,
2013-04-14 11:33:00,70.0,40.0,30.22,South,190,5.0,7.0,34,0.00,,,0.76,,2013-04-14 15:33:00,
2013-04-14 11:43:00,70.0,40.0,30.22,South,190,5.0,7.0,34,0.00,,,0.76,,2013-04-14 15:43:00,
2013-04-14 11:53:00,70.0,42.0,30.22,ESE,122,4.0,6.0,36,0.00,,,0.76,,2013-04-14 15:53:00,
2013-04-14 12:04:00,71.0,43.0,30.21,SSE,148,0.0,0.0,37,0.00,,,0.76,,2013-04-14 16:04:00,
2013-04-14 12:13:00,71.0,43.0,30.21,SSE,148,0.0,0.0,37,0.00,,,0.76,,2013-04-14 16:13:00,
2013-04-14 12:23:00,72.0,44.0,30.21,West,271,0.0,2.0,37,0.00,,,0.76,,2013-04-14 16:23:00,
2013-04-14 12:33:00,71.0,43.0,30.22,SE,129,1.0,4.0,36,0.00,,,0.76,,2013-04-14 16:33:00,
2013-04-14 12:43:00,71.0,43.0,30.22,SE,129,1.0,4.0,36,0.00,,,0.76,,2013-04-14 16:43:00,
2013-04-14 12:53:00,71.0,45.0,30.21,South,172,0.0,1.0,39,0.00,,,0.76,,2013-04-14 16:53:00,
2013-04-14 13:02:00,71.0,45.0,30.21,WSW,256,3.0,4.0,40,0.00,,,0.76,,2013-04-14 17:02:00,
2013-04-14 13:13:00,71.0,45.0,30.21,WSW,256,3.0,4.0,40,0.00,,,0.76,,2013-04-14 17:13:00,
2013-04-14 13:22:00,72.0,46.0,30.21,West,271,4.0,5.0,39,0.00,,,0.76,,2013-04-14 17:22:00,
2013-04-14 13:33:00,72.0,46.0,30.20,East,87,0.0,1.0,39,0.00,,,0.76,,2013-04-14 17:33:00,
2013-04-14 13:42:00,72.0,46.0,30.20,East,87,0.0,1.0,39,0.00,,,0.76,,2013-04-14 17:42:00,
2013-04-14 13:52:00,72.0,46.0,30.20,WSW,250,5.0,9.0,40,0.00,,,0.76,,2013-04-14 17:52:00,
2013-04-14 14:02:00,71.0,47.0,30.20,West,262,4.0,5.0,43,0.00,,,0.76,,2013-04-14 18:02:00,
2013-04-14 14:12:00,71.0,47.0,30.20,West,262,4.0,5.0,43,0.00,,,0.76,,2013-04-14 18:12:00,
2013-04-14 14:22:00,71.0,47.0,30.19,SSE,163,5.0,8.0,42,0.00,,,0.76,,2013-04-14 18:22:00,
2013-04-14 14:32:00,70.0,46.0,30.19,South,172,3.0,6.0,43,0.00,,,0.76,,2013-04-14 18:32:00,
2013-04-14 14:43:00,70.0,46.0,30.19,South,172,3.0,6.0,43,0.00,,,0.76,,2013-04-14 18:43:00,
2013-04-14 14:52:00,70.0,47.0,30.19,South,188,4.0,6.0,44,0.00,,,0.76,,2013-04-14 18:52:00,
2013-04-14 15:03:00,70.0,47.0,30.19,South,172,4.0,6.0,44,0.00,,,0.76,,2013-04-14 19:03:00,
2013-04-14 15:12:00,70.0,47.0,30.19,South,172,4.0,6.0,44,0.00,,,0.76,,2013-04-14 19:12:00,
2013-04-14 15:22:00,70.0,48.0,30.19,SW,221,2.0,5.0,45,0.00,,,0.76,,2013-04-14 19:22:00,
2013-04-14 15:32:00,71.0,49.0,30.19,NNW,340,3.0,6.0,45,0.00,,,0.76,,2013-04-14 19:32:00,
2013-04-14 15:42:00,71.0,49.0,30.19,NNW,340,3.0,6.0,45,0.00,,,0.76,,2013-04-14 19:42:00,
2013-04-14 15:52:00,71.0,49.0,30.18,West,278,2.0,3.0,45,0.00,,,0.76,,2013-04-14 19:52:00,
2013-04-14 16:02:00,70.0,48.0,30.18,SSW,204,2.0,3.0,46,0.00,,,0.76,,2013-04-14 20:02:00,
2013-04-14 16:13:00,70.0,48.0,30.18,SSW,204,2.0,3.0,46,0.00,,,0.76,,2013-04-14 20:13:00,
2013-04-14 16:22:00,71.0,50.0,30.18,South,176,1.0,4.0,47,0.00,,,0.76,,2013-04-14 20:22:00,
2013-04-14 16:33:00,70.0,50.0,30.18,ESE,107,3.0,5.0,49,0.00,,,0.76,,2013-04-14 20:33:00,
2013-04-14 16:43:00,70.0,50.0,30.18,ESE,107,3.0,5.0,49,0.00,,,0.76,,2013-04-14 20:43:00,
2013-04-14 16:52:00,70.0,50.0,30.18,SW,221,0.0,1.0,50,0.00,,,0.76,,2013-04-14 20:52:00,
2013-04-14 17:02:00,69.0,50.0,30.18,SW,217,1.0,2.0,50,0.00,,,0.76,,2013-04-14 21:02:00,
2013-04-14 17:12:00,69.0,50.0,30.18,SW,217,1.0,2.0,50,0.00,,,0.76,,2013-04-14 21:12:00,
2013-04-14 17:23:00,69.0,50.0,30.18,SSW,212,0.0,0.0,51,0.00,,,0.76,,2013-04-14 21:23:00,
2013-04-14 17:33:00,69.0,51.0,30.17,South,177,0.0,0.0,53,0.00,,,0.76,,2013-04-14 21:33:00,
2013-04-14 17:43:00,69.0,51.0,30.17,South,177,0.0,0.0,53,0.00,,,0.76,,2013-04-14 21:43:00,
2013-04-14 17:53:00,68.0,51.0,30.17,West,269,1.0,2.0,54,0.00,,,0.76,,2013-04-14 21:53:00,
2013-04-14 18:03:00,68.0,51.0,30.16,SSE,149,0.0,0.0,54,0.00,,,0.76,,2013-04-14 22:03:00,
2013-04-14 18:13:00,68.0,51.0,30.16,SSE,149,0.0,0.0,54,0.00,,,0.76,,2013-04-14 22:13:00,
2013-04-14 18:23:00,68.0,52.0,30.16,NNE,25,5.0,8.0,57,0.00,,,0.76,,2013-04-14 22:23:00,
2013-04-14 18:33:00,68.0,48.0,30.15,WSW,245,2.0,3.0,49,0.00,,,0.76,,2013-04-14 22:33:00,
2013-04-14 18:44:00,68.0,48.0,30.15,WSW,245,2.0,3.0,49,0.00,,,0.76,,2013-04-14 22:44:00,
2013-04-14 18:52:00,68.0,50.0,30.15,SSE,152,0.0,0.0,53,0.00,,,0.76,,2013-04-14 22:52:00,
2013-04-14 19:02:00,67.0,50.0,30.15,SW,225,3.0,6.0,54,0.00,,,0.76,,2013-04-14 23:02:00,
2013-04-14 19:12:00,67.0,50.0,30.14,North,6,2.0,4.0,54,0.00,,,0.76,,2013-04-14 23:12:00,
2013-04-14 19:22:00,67.0,50.0,30.14,North,6,2.0,4.0,54,0.00,,,0.76,,2013-04-14 23:22:00,
2013-04-14 19:33:00,66.0,50.0,30.14,SSW,197,1.0,3.0,56,0.00,,,0.76,,2013-04-14 23:33:00,
2013-04-14 19:43:00,66.0,50.0,30.14,SSW,197,1.0,3.0,56,0.00,,,0.76,,2013-04-14 23:43:00,
2013-04-14 19:52:00,66.0,50.0,30.12,SW,231,1.0,3.0,57,0.00,,,0.76,,2013-04-14 23:52:00,
2013-04-14 20:02:00,65.0,52.0,30.12,SSE,158,2.0,4.0,63,0.00,,,0.76,,2013-04-15 00:02:00,
2013-04-14 20:12:00,65.0,52.0,30.12,SSE,158,2.0,4.0,63,0.00,,,0.76,,2013-04-15 00:12:00,
2013-04-14 20:23:00,64.0,53.0,30.11,SW,229,3.0,6.0,68,0.00,,,0.76,,2013-04-15 00:23:00,
2013-04-14 20:33:00,64.0,54.0,30.12,SW,222,4.0,6.0,70,0.00,,,0.76,,2013-04-15 00:33:00,
2013-04-14 20:42:00,63.0,53.0,30.13,South,187,1.0,1.0,71,0.00,,,0.76,,2013-04-15 00:42:00,
2013-04-14 20:52:00,63.0,53.0,30.13,South,187,1.0,1.0,71,0.00,,,0.76,,2013-04-15 00:52:00,
2013-04-14 21:02:00,63.0,54.0,30.14,South,187,0.0,0.0,72,0.00,,,0.76,,2013-04-15 01:02:00,
2013-04-14 21:12:00,63.0,54.0,30.14,South,187,0.0,0.0,72,0.00,,,0.76,,2013-04-15 01:12:00,
2013-04-14 21:23:00,63.0,54.0,30.15,NNE,21,0.0,0.0,72,0.00,,,0.76,,2013-04-15 01:23:00,
2013-04-14 21:32:00,63.0,54.0,30.15,NNE,21,0.0,0.0,73,0.00,,,0.76,,2013-04-15 01:32:00,
2013-04-14 21:42:00,63.0,54.0,30.15,NNE,21,0.0,0.0,73,0.00,,,0.76,,2013-04-15 01:42:00,
2013-04-14 21:52:00,62.0,53.0,30.15,NNE,17,0.0,0.0,72,0.00,,,0.76,,2013-04-15 01:52:00,
2013-04-14 22:03:00,62.0,55.0,30.15,NNE,23,0.0,0.0,78,0.00,,,0.76,,2013-04-15 02:03:00,
2013-04-14 22:12:00,62.0,55.0,30.15,NNE,23,0.0,0.0,78,0.00,,,0.76,,2013-04-15 02:12:00,
2013-04-14 22:22:00,61.0,54.0,30.15,NNE,20,0.0,3.0,78,0.00,,,0.76,,2013-04-15 02:22:00,
2013-04-14 22:32:00,61.0,52.0,30.14,NE,39,3.0,4.0,73,0.00,,,0.76,,2013-04-15 02:32:00,
2013-04-14 22:42:00,61.0,52.0,30.14,NE,39,3.0,4.0,73,0.00,,,0.76,,2013-04-15 02:42:00,
2013-04-14 22:52:00,61.0,55.0,30.13,WNW,302,0.0,1.0,80,0.00,,,0.76,,2013-04-15 02:52:00,
2013-04-14 23:03:00,62.0,53.0,30.13,SE,125,0.0,0.0,73,0.00,,,0.76,,2013-04-15 03:03:00,
2013-04-14 23:12:00,62.0,53.0,30.13,SE,125,0.0,0.0,73,0.00,,,0.76,,2013-04-15 03:12:00,
2013-04-14 23:22:00,62.0,53.0,30.14,NNE,21,3.0,3.0,72,0.00,,,0.76,,2013-04-15 03:22:00,
2013-04-14 23:33:00,62.0,55.0,30.15,SSW,195,0.0,0.0,77,0.00,,,0.76,,2013-04-15 03:33:00,
2013-04-14 23:43:00,62.0,55.0,30.15,SSW,195,0.0,0.0,77,0.00,,,0.76,,2013-04-15 03:43:00,
2013-04-14 23:54:00,59.0,55.0,30.16,SE,124,0.0,0.0,88,0.00,,,0.78,,2013-04-15 03:54:00,